sensor_id;sensor_type;location;lat;lon;timestamp;P1;durP1;ratioP1;P2;durP2;ratioP2
74363;SDS011;62797;49.740;10.154;2023-12-07T00:01:01;20.47;;;11.20;;
74363;SDS011;62797;49.740;10.154;2023-12-07T00:03:27;26.17;;;11.90;;
74363;SDS011;62797;49.740;10.154;2023-12-07T00:05:53;23.92;;;12.25;;
74363;SDS011;62797;49.740;10.154;2023-12-07T00:08:18;21.93;;;11.07;;
74363;SDS011;62797;49.740;10.154;2023-12-07T00:10:44;25.98;;;11.52;;
74363;SDS011;62797;49.740;10.154;2023-12-07T00:13:10;25.42;;;12.95;;
74363;SDS011;62797;49.740;10.154;2023-12-07T00:15:36;25.17;;;13.43;;
74363;SDS011;62797;49.740;10.154;2023-12-07T00:18:02;22.40;;;11.75;;
74363;SDS011;62797;49.740;10.154;2023-12-07T00:20:28;24.13;;;12.10;;
74363;SDS011;62797;49.740;10.154;2023-12-07T00:22:54;26.75;;;13.57;;
74363;SDS011;62797;49.740;10.154;2023-12-07T00:25:20;25.35;;;12.00;;
74363;SDS011;62797;49.740;10.154;2023-12-07T00:30:13;30.70;;;14.43;;
74363;SDS011;62797;49.740;10.154;2023-12-07T00:32:38;34.58;;;13.98;;
74363;SDS011;62797;49.740;10.154;2023-12-07T00:35:08;32.13;;;13.82;;
74363;SDS011;62797;49.740;10.154;2023-12-07T00:37:34;26.38;;;13.18;;
74363;SDS011;62797;49.740;10.154;2023-12-07T00:39:59;25.97;;;12.83;;
74363;SDS011;62797;49.740;10.154;2023-12-07T00:42:26;24.25;;;12.60;;
74363;SDS011;62797;49.740;10.154;2023-12-07T00:44:52;24.60;;;12.57;;
74363;SDS011;62797;49.740;10.154;2023-12-07T00:47:18;23.30;;;12.40;;
74363;SDS011;62797;49.740;10.154;2023-12-07T00:49:44;33.60;;;13.15;;
74363;SDS011;62797;49.740;10.154;2023-12-07T00:52:09;26.50;;;12.53;;
74363;SDS011;62797;49.740;10.154;2023-12-07T00:54:35;26.93;;;12.37;;
74363;SDS011;62797;49.740;10.154;2023-12-07T00:57:01;35.53;;;15.30;;
74363;SDS011;62797;49.740;10.154;2023-12-07T00:59:26;22.50;;;11.97;;
74363;SDS011;62797;49.740;10.154;2023-12-07T01:01:52;34.63;;;13.98;;
74363;SDS011;62797;49.740;10.154;2023-12-07T01:04:17;32.08;;;12.95;;
74363;SDS011;62797;49.740;10.154;2023-12-07T01:06:43;26.70;;;12.57;;
74363;SDS011;62797;49.740;10.154;2023-12-07T01:09:09;22.17;;;13.20;;
74363;SDS011;62797;49.740;10.154;2023-12-07T01:11:38;22.33;;;10.85;;
74363;SDS011;62797;49.740;10.154;2023-12-07T01:14:07;24.65;;;13.63;;
74363;SDS011;62797;49.740;10.154;2023-12-07T01:16:32;26.92;;;12.80;;
74363;SDS011;62797;49.740;10.154;2023-12-07T01:18:58;30.05;;;13.60;;
74363;SDS011;62797;49.740;10.154;2023-12-07T01:21:24;26.03;;;13.00;;
74363;SDS011;62797;49.740;10.154;2023-12-07T01:23:49;26.60;;;14.97;;
74363;SDS011;62797;49.740;10.154;2023-12-07T01:26:15;29.00;;;13.80;;
74363;SDS011;62797;49.740;10.154;2023-12-07T01:28:40;27.33;;;11.73;;
74363;SDS011;62797;49.740;10.154;2023-12-07T01:31:06;28.88;;;13.80;;
74363;SDS011;62797;49.740;10.154;2023-12-07T01:33:31;29.67;;;11.97;;
74363;SDS011;62797;49.740;10.154;2023-12-07T01:35:58;23.33;;;11.57;;
74363;SDS011;62797;49.740;10.154;2023-12-07T01:38:23;29.77;;;14.93;;
74363;SDS011;62797;49.740;10.154;2023-12-07T01:40:49;21.75;;;10.85;;
74363;SDS011;62797;49.740;10.154;2023-12-07T01:43:15;25.23;;;11.75;;
74363;SDS011;62797;49.740;10.154;2023-12-07T01:45:40;34.97;;;13.30;;
74363;SDS011;62797;49.740;10.154;2023-12-07T01:48:06;23.07;;;11.60;;
74363;SDS011;62797;49.740;10.154;2023-12-07T01:50:32;22.73;;;11.85;;
74363;SDS011;62797;49.740;10.154;2023-12-07T01:53:01;25.25;;;12.52;;
74363;SDS011;62797;49.740;10.154;2023-12-07T01:55:28;28.48;;;13.05;;
74363;SDS011;62797;49.740;10.154;2023-12-07T01:57:56;20.38;;;10.77;;
74363;SDS011;62797;49.740;10.154;2023-12-07T02:00:22;26.33;;;12.75;;
74363;SDS011;62797;49.740;10.154;2023-12-07T02:02:48;24.45;;;13.60;;
74363;SDS011;62797;49.740;10.154;2023-12-07T02:05:15;22.25;;;11.63;;
74363;SDS011;62797;49.740;10.154;2023-12-07T02:07:41;24.48;;;11.93;;
74363;SDS011;62797;49.740;10.154;2023-12-07T02:10:07;29.27;;;11.35;;
74363;SDS011;62797;49.740;10.154;2023-12-07T02:12:33;25.77;;;12.32;;
74363;SDS011;62797;49.740;10.154;2023-12-07T02:17:28;22.38;;;11.48;;
74363;SDS011;62797;49.740;10.154;2023-12-07T02:20:09;19.00;;;9.82;;
74363;SDS011;62797;49.740;10.154;2023-12-07T02:22:39;26.35;;;13.10;;
74363;SDS011;62797;49.740;10.154;2023-12-07T02:25:11;20.33;;;10.30;;
74363;SDS011;62797;49.740;10.154;2023-12-07T02:30:09;18.83;;;10.63;;
74363;SDS011;62797;49.740;10.154;2023-12-07T02:32:40;22.27;;;11.00;;
74363;SDS011;62797;49.740;10.154;2023-12-07T02:35:08;18.73;;;9.77;;
74363;SDS011;62797;49.740;10.154;2023-12-07T02:37:40;22.05;;;10.25;;
74363;SDS011;62797;49.740;10.154;2023-12-07T02:40:08;21.48;;;9.75;;
74363;SDS011;62797;49.740;10.154;2023-12-07T02:42:35;24.55;;;11.30;;
74363;SDS011;62797;49.740;10.154;2023-12-07T02:45:03;23.58;;;10.40;;
74363;SDS011;62797;49.740;10.154;2023-12-07T02:47:29;23.08;;;10.95;;
74363;SDS011;62797;49.740;10.154;2023-12-07T02:49:55;22.20;;;10.27;;
74363;SDS011;62797;49.740;10.154;2023-12-07T02:52:20;25.10;;;11.00;;
74363;SDS011;62797;49.740;10.154;2023-12-07T02:54:46;23.48;;;10.35;;
74363;SDS011;62797;49.740;10.154;2023-12-07T02:57:13;19.95;;;9.98;;
74363;SDS011;62797;49.740;10.154;2023-12-07T03:02:05;23.92;;;10.32;;
74363;SDS011;62797;49.740;10.154;2023-12-07T03:04:31;24.42;;;11.88;;
74363;SDS011;62797;49.740;10.154;2023-12-07T03:06:57;28.75;;;12.10;;
74363;SDS011;62797;49.740;10.154;2023-12-07T03:09:23;23.90;;;12.88;;
74363;SDS011;62797;49.740;10.154;2023-12-07T03:11:48;33.13;;;14.90;;
74363;SDS011;62797;49.740;10.154;2023-12-07T03:14:14;32.08;;;13.38;;
74363;SDS011;62797;49.740;10.154;2023-12-07T03:16:40;24.92;;;12.25;;
74363;SDS011;62797;49.740;10.154;2023-12-07T03:19:06;28.52;;;11.75;;
74363;SDS011;62797;49.740;10.154;2023-12-07T03:21:31;26.73;;;11.32;;
74363;SDS011;62797;49.740;10.154;2023-12-07T03:23:57;36.33;;;13.65;;
74363;SDS011;62797;49.740;10.154;2023-12-07T03:26:25;37.00;;;13.52;;
74363;SDS011;62797;49.740;10.154;2023-12-07T03:28:51;36.45;;;14.20;;
74363;SDS011;62797;49.740;10.154;2023-12-07T03:31:16;32.47;;;14.70;;
74363;SDS011;62797;49.740;10.154;2023-12-07T03:33:42;31.38;;;15.45;;
74363;SDS011;62797;49.740;10.154;2023-12-07T03:36:10;34.67;;;16.05;;
74363;SDS011;62797;49.740;10.154;2023-12-07T03:38:36;29.30;;;13.82;;
74363;SDS011;62797;49.740;10.154;2023-12-07T03:41:02;30.50;;;16.05;;
74363;SDS011;62797;49.740;10.154;2023-12-07T03:45:54;31.23;;;14.35;;
74363;SDS011;62797;49.740;10.154;2023-12-07T03:48:20;26.40;;;13.77;;
74363;SDS011;62797;49.740;10.154;2023-12-07T03:50:46;26.38;;;12.75;;
74363;SDS011;62797;49.740;10.154;2023-12-07T03:53:11;36.72;;;16.55;;
74363;SDS011;62797;49.740;10.154;2023-12-07T03:55:37;32.20;;;16.13;;
74363;SDS011;62797;49.740;10.154;2023-12-07T03:58:04;32.80;;;13.93;;
74363;SDS011;62797;49.740;10.154;2023-12-07T04:00:31;35.05;;;15.85;;
74363;SDS011;62797;49.740;10.154;2023-12-07T04:02:57;32.55;;;14.55;;
74363;SDS011;62797;49.740;10.154;2023-12-07T04:05:23;32.80;;;15.07;;
74363;SDS011;62797;49.740;10.154;2023-12-07T04:07:48;30.73;;;14.20;;
74363;SDS011;62797;49.740;10.154;2023-12-07T04:10:14;32.88;;;13.75;;
74363;SDS011;62797;49.740;10.154;2023-12-07T04:12:40;39.55;;;15.15;;
74363;SDS011;62797;49.740;10.154;2023-12-07T04:15:06;40.65;;;16.85;;
74363;SDS011;62797;49.740;10.154;2023-12-07T04:17:32;27.67;;;15.43;;
74363;SDS011;62797;49.740;10.154;2023-12-07T04:19:57;33.22;;;13.43;;
74363;SDS011;62797;49.740;10.154;2023-12-07T04:22:23;39.03;;;16.00;;
74363;SDS011;62797;49.740;10.154;2023-12-07T04:24:48;29.20;;;14.90;;
74363;SDS011;62797;49.740;10.154;2023-12-07T04:27:14;36.00;;;16.05;;
74363;SDS011;62797;49.740;10.154;2023-12-07T04:29:40;37.20;;;15.52;;
74363;SDS011;62797;49.740;10.154;2023-12-07T04:32:07;28.85;;;12.98;;
74363;SDS011;62797;49.740;10.154;2023-12-07T04:34:33;33.95;;;14.23;;
74363;SDS011;62797;49.740;10.154;2023-12-07T04:36:59;37.25;;;17.98;;
74363;SDS011;62797;49.740;10.154;2023-12-07T04:39:24;35.97;;;15.48;;
74363;SDS011;62797;49.740;10.154;2023-12-07T04:41:50;44.72;;;17.40;;
74363;SDS011;62797;49.740;10.154;2023-12-07T04:44:16;35.03;;;15.52;;
74363;SDS011;62797;49.740;10.154;2023-12-07T04:46:42;46.65;;;18.27;;
74363;SDS011;62797;49.740;10.154;2023-12-07T04:49:08;41.65;;;17.98;;
74363;SDS011;62797;49.740;10.154;2023-12-07T04:51:34;45.00;;;19.20;;
74363;SDS011;62797;49.740;10.154;2023-12-07T04:53:59;37.90;;;16.55;;
74363;SDS011;62797;49.740;10.154;2023-12-07T04:56:25;41.67;;;17.50;;
74363;SDS011;62797;49.740;10.154;2023-12-07T04:58:51;44.97;;;17.45;;
74363;SDS011;62797;49.740;10.154;2023-12-07T05:01:16;40.60;;;17.00;;
74363;SDS011;62797;49.740;10.154;2023-12-07T05:03:44;37.58;;;15.43;;
74363;SDS011;62797;49.740;10.154;2023-12-07T05:06:10;36.90;;;16.60;;
74363;SDS011;62797;49.740;10.154;2023-12-07T05:08:36;39.95;;;17.83;;
74363;SDS011;62797;49.740;10.154;2023-12-07T05:11:04;35.58;;;14.55;;
74363;SDS011;62797;49.740;10.154;2023-12-07T05:13:30;38.65;;;16.92;;
74363;SDS011;62797;49.740;10.154;2023-12-07T05:15:55;39.83;;;18.13;;
74363;SDS011;62797;49.740;10.154;2023-12-07T05:18:22;40.35;;;18.77;;
74363;SDS011;62797;49.740;10.154;2023-12-07T05:20:47;44.72;;;18.38;;
74363;SDS011;62797;49.740;10.154;2023-12-07T05:23:13;44.88;;;16.65;;
74363;SDS011;62797;49.740;10.154;2023-12-07T05:25:39;41.85;;;17.90;;
74363;SDS011;62797;49.740;10.154;2023-12-07T05:28:04;46.33;;;18.67;;
74363;SDS011;62797;49.740;10.154;2023-12-07T05:30:30;37.92;;;16.63;;
74363;SDS011;62797;49.740;10.154;2023-12-07T05:32:56;39.53;;;19.45;;
74363;SDS011;62797;49.740;10.154;2023-12-07T05:35:21;45.28;;;19.42;;
74363;SDS011;62797;49.740;10.154;2023-12-07T05:37:48;44.55;;;19.10;;
74363;SDS011;62797;49.740;10.154;2023-12-07T05:40:14;40.80;;;17.33;;
74363;SDS011;62797;49.740;10.154;2023-12-07T05:42:43;37.08;;;18.08;;
74363;SDS011;62797;49.740;10.154;2023-12-07T05:45:09;45.13;;;19.33;;
74363;SDS011;62797;49.740;10.154;2023-12-07T05:47:35;42.97;;;18.77;;
74363;SDS011;62797;49.740;10.154;2023-12-07T05:50:01;38.00;;;17.67;;
74363;SDS011;62797;49.740;10.154;2023-12-07T05:52:28;41.58;;;18.83;;
74363;SDS011;62797;49.740;10.154;2023-12-07T05:54:54;46.90;;;18.65;;
74363;SDS011;62797;49.740;10.154;2023-12-07T05:57:20;47.22;;;19.92;;
74363;SDS011;62797;49.740;10.154;2023-12-07T05:59:45;52.08;;;21.67;;
74363;SDS011;62797;49.740;10.154;2023-12-07T06:02:11;59.78;;;22.65;;
74363;SDS011;62797;49.740;10.154;2023-12-07T06:04:37;45.60;;;20.40;;
74363;SDS011;62797;49.740;10.154;2023-12-07T06:07:03;51.03;;;19.80;;
74363;SDS011;62797;49.740;10.154;2023-12-07T06:09:29;56.58;;;21.88;;
74363;SDS011;62797;49.740;10.154;2023-12-07T06:11:54;60.00;;;23.75;;
74363;SDS011;62797;49.740;10.154;2023-12-07T06:14:20;52.20;;;22.23;;
74363;SDS011;62797;49.740;10.154;2023-12-07T06:16:48;54.90;;;21.15;;
74363;SDS011;62797;49.740;10.154;2023-12-07T06:19:14;49.40;;;20.55;;
74363;SDS011;62797;49.740;10.154;2023-12-07T06:21:39;59.90;;;24.65;;
74363;SDS011;62797;49.740;10.154;2023-12-07T06:24:05;54.00;;;21.70;;
74363;SDS011;62797;49.740;10.154;2023-12-07T06:26:32;65.50;;;23.05;;
74363;SDS011;62797;49.740;10.154;2023-12-07T06:28:58;52.35;;;24.10;;
74363;SDS011;62797;49.740;10.154;2023-12-07T06:31:24;56.30;;;25.92;;
74363;SDS011;62797;49.740;10.154;2023-12-07T06:33:49;144.77;;;46.25;;
74363;SDS011;62797;49.740;10.154;2023-12-07T06:36:19;186.90;;;54.05;;
74363;SDS011;62797;49.740;10.154;2023-12-07T06:38:48;149.13;;;44.50;;
74363;SDS011;62797;49.740;10.154;2023-12-07T06:41:14;124.57;;;39.55;;
74363;SDS011;62797;49.740;10.154;2023-12-07T06:43:41;136.77;;;42.05;;
74363;SDS011;62797;49.740;10.154;2023-12-07T06:46:06;128.95;;;38.28;;
74363;SDS011;62797;49.740;10.154;2023-12-07T06:48:33;112.50;;;33.70;;
74363;SDS011;62797;49.740;10.154;2023-12-07T06:50:59;94.13;;;28.20;;
74363;SDS011;62797;49.740;10.154;2023-12-07T06:53:24;101.82;;;25.80;;
74363;SDS011;62797;49.740;10.154;2023-12-07T06:55:50;77.20;;;27.75;;
74363;SDS011;62797;49.740;10.154;2023-12-07T06:58:16;85.55;;;27.25;;
74363;SDS011;62797;49.740;10.154;2023-12-07T07:00:41;82.75;;;27.52;;
74363;SDS011;62797;49.740;10.154;2023-12-07T07:03:07;89.43;;;29.80;;
74363;SDS011;62797;49.740;10.154;2023-12-07T07:05:32;90.35;;;29.70;;
74363;SDS011;62797;49.740;10.154;2023-12-07T07:07:58;101.72;;;26.80;;
74363;SDS011;62797;49.740;10.154;2023-12-07T07:10:24;73.68;;;27.25;;
74363;SDS011;62797;49.740;10.154;2023-12-07T07:12:49;90.03;;;32.17;;
74363;SDS011;62797;49.740;10.154;2023-12-07T07:15:15;91.25;;;27.75;;
74363;SDS011;62797;49.740;10.154;2023-12-07T07:17:41;59.88;;;22.38;;
74363;SDS011;62797;49.740;10.154;2023-12-07T07:20:07;64.75;;;24.60;;
74363;SDS011;62797;49.740;10.154;2023-12-07T07:22:35;74.95;;;24.17;;
74363;SDS011;62797;49.740;10.154;2023-12-07T07:25:03;91.72;;;26.48;;
74363;SDS011;62797;49.740;10.154;2023-12-07T07:27:29;92.13;;;23.05;;
74363;SDS011;62797;49.740;10.154;2023-12-07T07:29:55;87.53;;;27.50;;
74363;SDS011;62797;49.740;10.154;2023-12-07T07:32:20;67.40;;;23.33;;
74363;SDS011;62797;49.740;10.154;2023-12-07T07:34:46;75.95;;;24.20;;
74363;SDS011;62797;49.740;10.154;2023-12-07T07:37:12;71.40;;;22.27;;
74363;SDS011;62797;49.740;10.154;2023-12-07T07:39:37;64.95;;;23.30;;
74363;SDS011;62797;49.740;10.154;2023-12-07T07:42:03;99.50;;;25.67;;
74363;SDS011;62797;49.740;10.154;2023-12-07T07:44:29;63.88;;;22.08;;
74363;SDS011;62797;49.740;10.154;2023-12-07T07:46:55;225.02;;;90.03;;
74363;SDS011;62797;49.740;10.154;2023-12-07T07:49:22;81.00;;;25.27;;
74363;SDS011;62797;49.740;10.154;2023-12-07T07:51:47;67.82;;;26.17;;
74363;SDS011;62797;49.740;10.154;2023-12-07T07:54:13;82.70;;;28.38;;
74363;SDS011;62797;49.740;10.154;2023-12-07T07:56:39;61.03;;;21.50;;
74363;SDS011;62797;49.740;10.154;2023-12-07T07:59:04;71.20;;;22.27;;
74363;SDS011;62797;49.740;10.154;2023-12-07T08:01:30;157.75;;;22.52;;
74363;SDS011;62797;49.740;10.154;2023-12-07T08:03:58;98.03;;;23.10;;
74363;SDS011;62797;49.740;10.154;2023-12-07T08:06:23;72.28;;;22.63;;
74363;SDS011;62797;49.740;10.154;2023-12-07T08:08:49;50.13;;;20.75;;
74363;SDS011;62797;49.740;10.154;2023-12-07T08:11:15;54.20;;;19.88;;
74363;SDS011;62797;49.740;10.154;2023-12-07T08:13:43;67.07;;;22.33;;
74363;SDS011;62797;49.740;10.154;2023-12-07T08:16:09;103.60;;;24.83;;
74363;SDS011;62797;49.740;10.154;2023-12-07T08:18:34;48.17;;;17.30;;
74363;SDS011;62797;49.740;10.154;2023-12-07T08:21:01;72.43;;;21.98;;
74363;SDS011;62797;49.740;10.154;2023-12-07T08:25:53;55.10;;;19.10;;
74363;SDS011;62797;49.740;10.154;2023-12-07T08:28:20;56.90;;;18.55;;
74363;SDS011;62797;49.740;10.154;2023-12-07T08:30:46;68.90;;;21.80;;
74363;SDS011;62797;49.740;10.154;2023-12-07T08:33:12;54.83;;;19.50;;
74363;SDS011;62797;49.740;10.154;2023-12-07T08:35:37;57.28;;;17.90;;
74363;SDS011;62797;49.740;10.154;2023-12-07T08:38:03;58.00;;;20.88;;
74363;SDS011;62797;49.740;10.154;2023-12-07T08:40:29;85.07;;;21.08;;
74363;SDS011;62797;49.740;10.154;2023-12-07T08:42:55;84.50;;;21.83;;
74363;SDS011;62797;49.740;10.154;2023-12-07T08:45:21;64.82;;;19.90;;
74363;SDS011;62797;49.740;10.154;2023-12-07T08:47:47;56.58;;;18.83;;
74363;SDS011;62797;49.740;10.154;2023-12-07T08:50:12;70.82;;;18.10;;
74363;SDS011;62797;49.740;10.154;2023-12-07T08:52:38;59.47;;;17.80;;
74363;SDS011;62797;49.740;10.154;2023-12-07T08:55:04;61.80;;;20.98;;
74363;SDS011;62797;49.740;10.154;2023-12-07T08:57:30;48.53;;;18.48;;
74363;SDS011;62797;49.740;10.154;2023-12-07T08:59:55;62.63;;;20.15;;
74363;SDS011;62797;49.740;10.154;2023-12-07T09:02:21;76.20;;;22.50;;
74363;SDS011;62797;49.740;10.154;2023-12-07T09:07:18;52.75;;;18.20;;
74363;SDS011;62797;49.740;10.154;2023-12-07T09:09:44;62.65;;;18.95;;
74363;SDS011;62797;49.740;10.154;2023-12-07T09:12:13;50.30;;;19.05;;
74363;SDS011;62797;49.740;10.154;2023-12-07T09:14:39;49.83;;;16.80;;
74363;SDS011;62797;49.740;10.154;2023-12-07T09:17:05;51.97;;;16.65;;
74363;SDS011;62797;49.740;10.154;2023-12-07T09:19:31;50.67;;;17.92;;
74363;SDS011;62797;49.740;10.154;2023-12-07T09:21:57;63.28;;;18.48;;
74363;SDS011;62797;49.740;10.154;2023-12-07T09:24:24;67.03;;;20.33;;
74363;SDS011;62797;49.740;10.154;2023-12-07T09:26:52;74.22;;;20.90;;
74363;SDS011;62797;49.740;10.154;2023-12-07T09:29:18;147.93;;;24.58;;
74363;SDS011;62797;49.740;10.154;2023-12-07T09:31:44;57.35;;;18.98;;
74363;SDS011;62797;49.740;10.154;2023-12-07T09:34:09;75.60;;;20.90;;
74363;SDS011;62797;49.740;10.154;2023-12-07T09:36:36;69.05;;;20.40;;
74363;SDS011;62797;49.740;10.154;2023-12-07T09:39:02;60.78;;;20.67;;
74363;SDS011;62797;49.740;10.154;2023-12-07T09:41:28;56.38;;;20.42;;
74363;SDS011;62797;49.740;10.154;2023-12-07T09:43:54;74.35;;;20.52;;
74363;SDS011;62797;49.740;10.154;2023-12-07T09:46:20;63.67;;;20.23;;
74363;SDS011;62797;49.740;10.154;2023-12-07T09:48:46;64.25;;;20.52;;
74363;SDS011;62797;49.740;10.154;2023-12-07T09:51:17;82.20;;;22.98;;
74363;SDS011;62797;49.740;10.154;2023-12-07T09:53:43;78.63;;;24.17;;
74363;SDS011;62797;49.740;10.154;2023-12-07T09:56:14;104.07;;;27.42;;
74363;SDS011;62797;49.740;10.154;2023-12-07T09:58:40;78.45;;;22.85;;
74363;SDS011;62797;49.740;10.154;2023-12-07T10:01:07;117.60;;;24.77;;
74363;SDS011;62797;49.740;10.154;2023-12-07T10:03:33;70.47;;;21.48;;
74363;SDS011;62797;49.740;10.154;2023-12-07T10:05:59;103.30;;;24.27;;
74363;SDS011;62797;49.740;10.154;2023-12-07T10:11:01;94.32;;;28.05;;
74363;SDS011;62797;49.740;10.154;2023-12-07T10:13:28;97.45;;;30.27;;
74363;SDS011;62797;49.740;10.154;2023-12-07T10:18:39;106.05;;;30.13;;
74363;SDS011;62797;49.740;10.154;2023-12-07T10:21:08;67.45;;;23.27;;
74363;SDS011;62797;49.740;10.154;2023-12-07T10:23:35;83.60;;;27.00;;
74363;SDS011;62797;49.740;10.154;2023-12-07T10:26:06;83.78;;;26.88;;
74363;SDS011;62797;49.740;10.154;2023-12-07T10:28:33;78.35;;;25.00;;
74363;SDS011;62797;49.740;10.154;2023-12-07T10:31:01;76.45;;;25.77;;
74363;SDS011;62797;49.740;10.154;2023-12-07T10:33:26;83.43;;;26.73;;
74363;SDS011;62797;49.740;10.154;2023-12-07T10:35:52;77.40;;;25.08;;
74363;SDS011;62797;49.740;10.154;2023-12-07T10:38:18;67.97;;;24.33;;
74363;SDS011;62797;49.740;10.154;2023-12-07T10:40:46;75.63;;;25.33;;
74363;SDS011;62797;49.740;10.154;2023-12-07T10:43:12;71.50;;;26.42;;
74363;SDS011;62797;49.740;10.154;2023-12-07T10:45:40;71.88;;;26.02;;
74363;SDS011;62797;49.740;10.154;2023-12-07T10:48:08;65.75;;;26.02;;
74363;SDS011;62797;49.740;10.154;2023-12-07T10:50:35;58.05;;;25.23;;
74363;SDS011;62797;49.740;10.154;2023-12-07T10:53:10;61.55;;;23.20;;
74363;SDS011;62797;49.740;10.154;2023-12-07T10:55:44;63.92;;;23.92;;
74363;SDS011;62797;49.740;10.154;2023-12-07T10:58:13;56.45;;;21.92;;
74363;SDS011;62797;49.740;10.154;2023-12-07T11:00:44;56.72;;;23.92;;
74363;SDS011;62797;49.740;10.154;2023-12-07T11:03:13;59.30;;;22.35;;
74363;SDS011;62797;49.740;10.154;2023-12-07T11:05:41;70.45;;;26.13;;
74363;SDS011;62797;49.740;10.154;2023-12-07T11:08:09;63.60;;;25.58;;
74363;SDS011;62797;49.740;10.154;2023-12-07T11:10:41;71.43;;;26.00;;
74363;SDS011;62797;49.740;10.154;2023-12-07T11:13:17;56.97;;;23.55;;
74363;SDS011;62797;49.740;10.154;2023-12-07T11:15:47;51.92;;;20.13;;
74363;SDS011;62797;49.740;10.154;2023-12-07T11:18:13;56.97;;;22.63;;
74363;SDS011;62797;49.740;10.154;2023-12-07T11:20:43;54.60;;;21.40;;
74363;SDS011;62797;49.740;10.154;2023-12-07T11:23:11;57.42;;;21.83;;
74363;SDS011;62797;49.740;10.154;2023-12-07T11:25:37;61.78;;;24.45;;
74363;SDS011;62797;49.740;10.154;2023-12-07T11:30:30;60.00;;;23.67;;
74363;SDS011;62797;49.740;10.154;2023-12-07T11:32:57;58.28;;;22.88;;
74363;SDS011;62797;49.740;10.154;2023-12-07T11:35:23;65.82;;;23.95;;
74363;SDS011;62797;49.740;10.154;2023-12-07T11:40:32;63.60;;;25.20;;
74363;SDS011;62797;49.740;10.154;2023-12-07T11:43:01;64.90;;;26.85;;
74363;SDS011;62797;49.740;10.154;2023-12-07T11:46:03;59.85;;;22.85;;
74363;SDS011;62797;49.740;10.154;2023-12-07T11:48:22;56.08;;;24.13;;
74363;SDS011;62797;49.740;10.154;2023-12-07T11:50:54;54.78;;;23.65;;
74363;SDS011;62797;49.740;10.154;2023-12-07T11:53:31;58.22;;;21.23;;
74363;SDS011;62797;49.740;10.154;2023-12-07T11:55:58;56.20;;;22.25;;
74363;SDS011;62797;49.740;10.154;2023-12-07T11:58:25;68.25;;;24.98;;
74363;SDS011;62797;49.740;10.154;2023-12-07T12:00:55;57.47;;;22.80;;
74363;SDS011;62797;49.740;10.154;2023-12-07T12:03:25;60.42;;;22.55;;
74363;SDS011;62797;49.740;10.154;2023-12-07T12:05:52;59.00;;;23.35;;
74363;SDS011;62797;49.740;10.154;2023-12-07T12:08:19;63.13;;;24.13;;
74363;SDS011;62797;49.740;10.154;2023-12-07T12:10:46;60.45;;;23.88;;
74363;SDS011;62797;49.740;10.154;2023-12-07T12:13:12;56.08;;;23.75;;
74363;SDS011;62797;49.740;10.154;2023-12-07T12:15:41;56.95;;;24.83;;
74363;SDS011;62797;49.740;10.154;2023-12-07T12:18:07;55.42;;;21.00;;
74363;SDS011;62797;49.740;10.154;2023-12-07T12:20:50;53.63;;;21.42;;
74363;SDS011;62797;49.740;10.154;2023-12-07T12:23:16;61.25;;;25.25;;
74363;SDS011;62797;49.740;10.154;2023-12-07T12:25:42;63.33;;;24.35;;
74363;SDS011;62797;49.740;10.154;2023-12-07T12:28:08;60.67;;;21.13;;
74363;SDS011;62797;49.740;10.154;2023-12-07T12:30:34;52.42;;;22.25;;
74363;SDS011;62797;49.740;10.154;2023-12-07T12:35:27;56.30;;;23.65;;
74363;SDS011;62797;49.740;10.154;2023-12-07T12:37:53;58.88;;;22.85;;
74363;SDS011;62797;49.740;10.154;2023-12-07T12:40:22;52.15;;;22.50;;
74363;SDS011;62797;49.740;10.154;2023-12-07T12:42:49;55.17;;;23.80;;
74363;SDS011;62797;49.740;10.154;2023-12-07T12:45:16;58.95;;;22.70;;
74363;SDS011;62797;49.740;10.154;2023-12-07T12:47:46;61.25;;;25.45;;
74363;SDS011;62797;49.740;10.154;2023-12-07T12:52:59;67.35;;;25.58;;
74363;SDS011;62797;49.740;10.154;2023-12-07T12:55:25;63.72;;;23.45;;
74363;SDS011;62797;49.740;10.154;2023-12-07T13:00:17;53.65;;;23.80;;
74363;SDS011;62797;49.740;10.154;2023-12-07T13:02:43;55.92;;;24.38;;
74363;SDS011;62797;49.740;10.154;2023-12-07T13:05:09;52.45;;;21.13;;
74363;SDS011;62797;49.740;10.154;2023-12-07T13:07:34;49.97;;;24.33;;
74363;SDS011;62797;49.740;10.154;2023-12-07T13:10:00;56.13;;;21.15;;
74363;SDS011;62797;49.740;10.154;2023-12-07T13:12:26;56.97;;;24.10;;
74363;SDS011;62797;49.740;10.154;2023-12-07T13:14:53;52.85;;;23.48;;
74363;SDS011;62797;49.740;10.154;2023-12-07T13:17:20;54.38;;;22.42;;
74363;SDS011;62797;49.740;10.154;2023-12-07T13:19:45;58.15;;;24.75;;
74363;SDS011;62797;49.740;10.154;2023-12-07T13:22:11;54.90;;;23.42;;
74363;SDS011;62797;49.740;10.154;2023-12-07T13:24:37;53.25;;;22.45;;
74363;SDS011;62797;49.740;10.154;2023-12-07T13:27:03;52.15;;;22.75;;
74363;SDS011;62797;49.740;10.154;2023-12-07T13:29:29;60.25;;;24.38;;
74363;SDS011;62797;49.740;10.154;2023-12-07T13:31:54;71.15;;;26.80;;
74363;SDS011;62797;49.740;10.154;2023-12-07T13:34:20;61.53;;;26.00;;
74363;SDS011;62797;49.740;10.154;2023-12-07T13:36:46;59.55;;;24.63;;
74363;SDS011;62797;49.740;10.154;2023-12-07T13:39:12;60.63;;;25.95;;
74363;SDS011;62797;49.740;10.154;2023-12-07T13:41:40;56.63;;;24.67;;
74363;SDS011;62797;49.740;10.154;2023-12-07T13:44:05;63.20;;;27.07;;
74363;SDS011;62797;49.740;10.154;2023-12-07T13:46:32;59.25;;;24.20;;
74363;SDS011;62797;49.740;10.154;2023-12-07T13:48:58;63.13;;;24.30;;
74363;SDS011;62797;49.740;10.154;2023-12-07T13:51:24;53.95;;;22.75;;
74363;SDS011;62797;49.740;10.154;2023-12-07T13:53:50;71.35;;;27.02;;
74363;SDS011;62797;49.740;10.154;2023-12-07T13:56:20;59.20;;;24.30;;
74363;SDS011;62797;49.740;10.154;2023-12-07T13:58:46;54.72;;;25.52;;
74363;SDS011;62797;49.740;10.154;2023-12-07T14:01:11;53.30;;;23.58;;
74363;SDS011;62797;49.740;10.154;2023-12-07T14:03:37;57.13;;;24.73;;
74363;SDS011;62797;49.740;10.154;2023-12-07T14:06:03;57.67;;;24.83;;
74363;SDS011;62797;49.740;10.154;2023-12-07T14:08:29;62.97;;;25.80;;
74363;SDS011;62797;49.740;10.154;2023-12-07T14:10:56;60.25;;;23.95;;
74363;SDS011;62797;49.740;10.154;2023-12-07T14:13:22;60.22;;;27.10;;
74363;SDS011;62797;49.740;10.154;2023-12-07T14:15:49;62.15;;;25.27;;
74363;SDS011;62797;49.740;10.154;2023-12-07T14:18:14;49.47;;;22.10;;
74363;SDS011;62797;49.740;10.154;2023-12-07T14:20:40;58.22;;;24.27;;
74363;SDS011;62797;49.740;10.154;2023-12-07T14:23:07;61.15;;;25.33;;
74363;SDS011;62797;49.740;10.154;2023-12-07T14:25:33;54.67;;;23.33;;
74363;SDS011;62797;49.740;10.154;2023-12-07T14:27:59;65.38;;;26.95;;
74363;SDS011;62797;49.740;10.154;2023-12-07T14:30:24;56.27;;;23.97;;
74363;SDS011;62797;49.740;10.154;2023-12-07T14:32:50;63.30;;;28.25;;
74363;SDS011;62797;49.740;10.154;2023-12-07T14:35:19;61.78;;;26.35;;
74363;SDS011;62797;49.740;10.154;2023-12-07T14:37:44;71.60;;;30.00;;
74363;SDS011;62797;49.740;10.154;2023-12-07T14:40:11;57.72;;;24.15;;